createdAt,value
2023-02-23T00:00:06.393Z,0.00
2023-02-23T00:01:06.370Z,0.00
2023-02-23T00:02:06.410Z,0.00
2023-02-23T00:03:06.529Z,0.00
2023-02-23T00:04:06.404Z,0.00
2023-02-23T00:05:06.431Z,0.00
2023-02-23T00:06:06.452Z,0.00
2023-02-23T00:07:06.479Z,0.00
2023-02-23T00:08:06.475Z,0.00
2023-02-23T00:09:06.491Z,0.00
2023-02-23T00:10:06.547Z,0.00
2023-02-23T00:11:06.513Z,0.00
2023-02-23T00:12:06.526Z,0.00
2023-02-23T00:13:06.554Z,0.00
2023-02-23T00:14:06.527Z,0.00
2023-02-23T00:15:06.558Z,0.00
2023-02-23T00:16:06.662Z,0.00
2023-02-23T00:17:06.555Z,0.00
2023-02-23T00:18:06.582Z,0.00
2023-02-23T00:19:06.578Z,0.00
2023-02-23T00:20:06.588Z,0.00
2023-02-23T00:21:06.597Z,0.00
2023-02-23T00:22:06.622Z,0.00
2023-02-23T00:23:06.655Z,0.00
2023-02-23T00:24:06.672Z,0.00
2023-02-23T00:25:06.686Z,0.00
2023-02-23T00:26:06.741Z,0.00
2023-02-23T00:27:06.717Z,0.00
2023-02-23T00:28:06.742Z,0.00
2023-02-23T00:29:06.768Z,0.00
2023-02-23T00:30:06.792Z,0.00
2023-02-23T00:31:06.889Z,0.00
2023-02-23T00:32:07.117Z,0.00
2023-02-23T00:33:06.843Z,0.00
2023-02-23T00:34:06.870Z,0.00
2023-02-23T00:35:06.881Z,0.00
2023-02-23T00:36:06.903Z,0.00
2023-02-23T00:37:06.911Z,0.00
2023-02-23T00:38:06.966Z,0.00
2023-02-23T00:39:06.936Z,0.00
2023-02-23T00:40:06.951Z,0.00
2023-02-23T00:41:06.961Z,0.00
2023-02-23T00:42:07.070Z,0.00
2023-02-23T00:43:07.000Z,0.00
2023-02-23T00:44:07.027Z,0.00
2023-02-23T00:45:07.010Z,0.00
2023-02-23T00:46:07.094Z,0.00
2023-02-23T00:47:07.065Z,0.00
2023-02-23T00:48:07.043Z,0.00
2023-02-23T00:49:07.066Z,0.00
2023-02-23T00:50:07.087Z,0.00
2023-02-23T00:51:07.121Z,0.00
2023-02-23T00:52:07.161Z,0.00
2023-02-23T00:53:07.128Z,0.00
2023-02-23T00:54:07.159Z,0.00
2023-02-23T00:55:07.182Z,0.00
2023-02-23T00:56:07.222Z,0.00
2023-02-23T00:57:07.249Z,0.00
2023-02-23T00:58:07.287Z,0.00
2023-02-23T00:59:07.264Z,0.00
2023-02-23T01:00:07.296Z,0.00
2023-02-23T01:01:07.408Z,0.00
2023-02-23T01:02:07.343Z,0.00
2023-02-23T01:03:07.347Z,0.00
2023-02-23T01:04:07.387Z,0.00
2023-02-23T01:05:07.390Z,0.00
2023-02-23T01:06:07.377Z,0.00
2023-02-23T01:07:07.400Z,0.00
2023-02-23T01:08:07.422Z,0.00
2023-02-23T01:09:07.449Z,0.00
2023-02-23T01:10:07.473Z,0.00
2023-02-23T01:11:07.441Z,0.00
2023-02-23T01:12:07.822Z,0.00
2023-02-23T01:13:07.454Z,0.00
2023-02-23T01:14:07.492Z,0.00
2023-02-23T01:15:07.469Z,0.00
2023-02-23T01:16:07.492Z,0.00
2023-02-23T01:17:07.677Z,0.00
2023-02-23T01:18:07.505Z,0.00
2023-02-23T01:19:07.532Z,0.00
2023-02-23T01:20:07.807Z,0.00
2023-02-23T01:21:07.586Z,0.00
2023-02-23T01:22:07.552Z,0.00
2023-02-23T01:23:07.570Z,0.00
2023-02-23T01:24:07.595Z,0.00
2023-02-23T01:25:07.624Z,0.00
2023-02-23T01:26:07.646Z,0.00
2023-02-23T01:27:07.661Z,0.00
2023-02-23T01:28:07.684Z,0.00
2023-02-23T01:29:07.699Z,0.00
2023-02-23T01:30:07.806Z,0.00
2023-02-23T01:31:07.876Z,0.00
2023-02-23T01:32:07.861Z,0.00
2023-02-23T01:33:07.729Z,0.00
2023-02-23T01:34:07.753Z,0.00
2023-02-23T01:35:07.787Z,0.00
2023-02-23T01:36:07.819Z,0.00
2023-02-23T01:37:07.832Z,0.00
2023-02-23T01:38:07.851Z,0.00
2023-02-23T01:39:07.976Z,0.00
2023-02-23T01:40:07.901Z,0.00
2023-02-23T01:41:07.916Z,0.00
2023-02-23T01:42:07.936Z,0.00
2023-02-23T01:43:07.959Z,0.00
2023-02-23T01:44:08.053Z,0.00
2023-02-23T01:45:07.998Z,0.00
2023-02-23T01:46:08.112Z,0.00
2023-02-23T01:47:08.006Z,0.00
2023-02-23T01:48:08.030Z,0.00
2023-02-23T01:49:08.047Z,0.00
2023-02-23T01:50:08.067Z,0.00
2023-02-23T01:51:08.102Z,0.00
2023-02-23T01:52:08.127Z,0.00
2023-02-23T01:53:08.141Z,0.00
2023-02-23T01:54:08.168Z,0.00
2023-02-23T01:55:08.186Z,0.00
2023-02-23T01:56:08.201Z,0.00
2023-02-23T01:57:08.227Z,0.00
2023-02-23T01:58:08.250Z,0.00
2023-02-23T01:59:08.274Z,0.00
2023-02-23T02:00:08.339Z,0.00
2023-02-23T02:01:08.322Z,0.00
2023-02-23T02:02:08.353Z,0.00
2023-02-23T02:03:08.333Z,0.00
2023-02-23T02:04:08.337Z,0.00
2023-02-23T02:05:08.463Z,0.00
2023-02-23T02:06:08.604Z,0.00
2023-02-23T02:07:08.394Z,0.00
2023-02-23T02:08:08.412Z,0.00
2023-02-23T02:09:08.426Z,0.00
2023-02-23T02:10:08.464Z,0.00
2023-02-23T02:11:08.472Z,0.00
2023-02-23T02:12:08.483Z,0.00
2023-02-23T02:13:08.472Z,0.00
2023-02-23T02:14:08.501Z,0.00
2023-02-23T02:15:08.567Z,0.00
2023-02-23T02:16:08.578Z,0.00
2023-02-23T02:17:08.566Z,0.00
2023-02-23T02:18:08.570Z,0.00
2023-02-23T02:19:08.537Z,0.00
2023-02-23T02:20:08.569Z,0.00
2023-02-23T02:21:08.595Z,0.00
2023-02-23T02:22:08.625Z,0.00
2023-02-23T02:23:08.652Z,0.00
2023-02-23T02:24:08.679Z,0.00
2023-02-23T02:25:08.760Z,0.00
2023-02-23T02:26:08.707Z,0.00
2023-02-23T02:27:08.731Z,0.00
2023-02-23T02:28:08.804Z,0.00
2023-02-23T02:29:08.773Z,0.00
2023-02-23T02:30:08.754Z,0.00
2023-02-23T02:31:08.801Z,0.00
2023-02-23T02:32:08.853Z,0.00
2023-02-23T02:33:08.782Z,0.00
2023-02-23T02:34:08.820Z,0.00
2023-02-23T02:35:08.797Z,0.00
2023-02-23T02:36:08.779Z,0.00
2023-02-23T02:37:08.799Z,0.00
2023-02-23T02:38:08.813Z,0.00
2023-02-23T02:39:08.844Z,0.00
2023-02-23T02:40:08.860Z,0.00
2023-02-23T02:41:08.887Z,0.00
2023-02-23T02:42:08.899Z,0.00
2023-02-23T02:43:08.927Z,0.00
2023-02-23T02:44:08.947Z,0.00
2023-02-23T02:45:08.974Z,0.00
2023-02-23T02:46:09.024Z,0.00
2023-02-23T02:47:08.980Z,0.00
2023-02-23T02:48:08.996Z,0.00
2023-02-23T02:49:09.017Z,0.00
2023-02-23T02:50:09.098Z,0.00
2023-02-23T02:51:09.030Z,0.00
2023-02-23T02:52:09.061Z,0.00
2023-02-23T02:53:09.070Z,0.00
2023-02-23T02:54:09.094Z,0.00
2023-02-23T02:55:09.128Z,0.00
2023-02-23T02:56:09.107Z,0.00
2023-02-23T02:57:09.121Z,0.00
2023-02-23T02:58:09.147Z,0.00
2023-02-23T02:59:09.174Z,0.00
2023-02-23T03:00:09.198Z,0.00
2023-02-23T03:01:09.290Z,0.00
2023-02-23T03:02:09.239Z,0.00
2023-02-23T03:03:09.272Z,0.00
2023-02-23T03:04:09.287Z,0.00
2023-02-23T03:05:09.389Z,0.00
2023-02-23T03:06:09.347Z,0.00
2023-02-23T03:07:09.315Z,0.00
2023-02-23T03:08:09.358Z,0.00
2023-02-23T03:09:09.558Z,0.00
2023-02-23T03:10:09.356Z,0.00
2023-02-23T03:11:09.333Z,0.00
2023-02-23T03:12:09.356Z,0.00
2023-02-23T03:13:09.381Z,0.00
2023-02-23T03:14:09.413Z,0.00
2023-02-23T03:15:09.437Z,0.00
2023-02-23T03:16:09.539Z,0.00
2023-02-23T03:17:09.494Z,0.00
2023-02-23T03:18:09.520Z,0.00
2023-02-23T03:19:09.534Z,0.00
2023-02-23T03:20:09.567Z,0.00
2023-02-23T03:21:09.581Z,0.00
2023-02-23T03:22:09.610Z,0.00
2023-02-23T03:23:09.587Z,0.00
2023-02-23T03:24:09.602Z,0.00
2023-02-23T03:25:09.631Z,0.00
2023-02-23T03:26:09.637Z,0.00
2023-02-23T03:27:09.669Z,0.00
2023-02-23T03:28:09.686Z,0.00
2023-02-23T03:29:09.711Z,0.00
2023-02-23T03:30:09.744Z,0.00
2023-02-23T03:31:09.760Z,0.00
2023-02-23T03:32:09.906Z,0.00
2023-02-23T03:33:09.774Z,0.00
2023-02-23T03:34:09.802Z,0.00
2023-02-23T03:35:09.834Z,0.00
2023-02-23T03:36:09.862Z,0.00
2023-02-23T03:37:09.889Z,0.00
2023-02-23T03:38:09.940Z,0.00
2023-02-23T03:39:09.907Z,0.00
2023-02-23T03:40:09.944Z,0.00
2023-02-23T03:41:09.957Z,0.00
2023-02-23T03:42:10.151Z,0.00
2023-02-23T03:43:09.938Z,0.00
2023-02-23T03:44:09.962Z,0.00
2023-02-23T03:45:10.004Z,0.00
2023-02-23T03:46:10.019Z,0.00
2023-02-23T03:47:10.042Z,0.00
2023-02-23T03:48:10.068Z,0.00
2023-02-23T03:49:10.091Z,0.00
2023-02-23T03:50:10.121Z,0.00
2023-02-23T03:51:10.105Z,0.00
2023-02-23T03:52:10.128Z,0.00
2023-02-23T03:53:10.160Z,0.00
2023-02-23T03:54:10.316Z,0.00
2023-02-23T03:55:10.205Z,0.00
2023-02-23T03:56:10.222Z,0.00
2023-02-23T03:57:10.245Z,0.00
2023-02-23T03:58:10.260Z,0.00
2023-02-23T03:59:10.294Z,0.00
2023-02-23T04:00:10.316Z,0.00
2023-02-23T04:01:10.332Z,0.00
2023-02-23T04:02:10.382Z,0.00
2023-02-23T04:03:10.387Z,0.00
2023-02-23T04:04:10.369Z,0.00
2023-02-23T04:05:10.362Z,0.00
2023-02-23T04:06:10.370Z,0.00
2023-02-23T04:07:10.383Z,0.00
2023-02-23T04:08:10.408Z,0.00
2023-02-23T04:09:10.420Z,0.00
2023-02-23T04:10:10.493Z,0.00
2023-02-23T04:11:10.494Z,0.00
2023-02-23T04:12:10.463Z,0.00
2023-02-23T04:13:10.490Z,0.00
2023-02-23T04:14:10.513Z,0.00
2023-02-23T04:15:10.548Z,0.00
2023-02-23T04:16:10.596Z,0.00
2023-02-23T04:17:10.548Z,0.00
2023-02-23T04:18:10.588Z,0.00
2023-02-23T04:19:10.559Z,0.00
2023-02-23T04:20:10.674Z,0.00
2023-02-23T04:21:10.679Z,0.00
2023-02-23T04:22:10.619Z,0.00
2023-02-23T04:23:10.652Z,0.00
2023-02-23T04:24:10.664Z,0.00
2023-02-23T04:25:10.706Z,0.00
2023-02-23T04:26:10.734Z,0.00
2023-02-23T04:27:10.701Z,0.00
2023-02-23T04:28:10.726Z,0.00
2023-02-23T04:29:10.744Z,0.00
2023-02-23T04:30:10.772Z,0.00
2023-02-23T04:31:10.796Z,0.00
2023-02-23T04:32:10.979Z,0.00
2023-02-23T04:33:10.843Z,0.00
2023-02-23T04:34:10.824Z,0.00
2023-02-23T04:35:10.852Z,0.00
2023-02-23T04:36:10.827Z,0.00
2023-02-23T04:37:10.842Z,0.00
2023-02-23T04:38:10.838Z,0.00
2023-02-23T04:39:10.820Z,0.00
2023-02-23T04:40:10.836Z,0.00
2023-02-23T04:41:10.859Z,0.00
2023-02-23T04:42:11.126Z,0.00
2023-02-23T04:43:10.922Z,0.00
2023-02-23T04:44:10.914Z,0.00
2023-02-23T04:45:10.929Z,0.00
2023-02-23T04:46:11.016Z,0.00
2023-02-23T04:47:10.961Z,0.00
2023-02-23T04:48:10.988Z,0.00
2023-02-23T04:49:10.998Z,0.00
2023-02-23T04:50:11.009Z,0.00
2023-02-23T04:51:11.023Z,0.00
2023-02-23T04:52:11.034Z,0.00
2023-02-23T04:53:11.066Z,0.00
2023-02-23T04:54:11.092Z,0.00
2023-02-23T04:55:11.099Z,0.00
2023-02-23T04:56:11.124Z,0.00
2023-02-23T04:57:11.148Z,0.00
2023-02-23T04:58:11.263Z,0.00
2023-02-23T04:59:11.186Z,0.00
2023-02-23T05:00:11.222Z,0.00
2023-02-23T05:01:11.294Z,0.00
2023-02-23T05:02:11.493Z,0.00
2023-02-23T05:03:11.280Z,0.00
2023-02-23T05:04:11.314Z,0.00
2023-02-23T05:05:11.427Z,0.00
2023-02-23T05:06:11.371Z,0.00
2023-02-23T05:07:11.401Z,0.00
2023-02-23T05:08:11.423Z,0.00
2023-02-23T05:09:11.442Z,0.00
2023-02-23T05:10:11.464Z,0.00
2023-02-23T05:11:11.479Z,0.00
2023-02-23T05:12:11.503Z,0.00
2023-02-23T05:13:11.508Z,0.00
2023-02-23T05:14:11.583Z,0.00
2023-02-23T05:15:11.569Z,0.00
2023-02-23T05:16:11.564Z,0.00
2023-02-23T05:17:11.537Z,0.00
2023-02-23T05:18:11.570Z,0.00
2023-02-23T05:19:11.583Z,0.00
2023-02-23T05:20:11.609Z,0.00
2023-02-23T05:21:11.643Z,0.00
2023-02-23T05:22:11.656Z,0.00
2023-02-23T05:23:11.690Z,0.00
2023-02-23T05:24:11.658Z,0.00
2023-02-23T05:25:11.717Z,0.00
2023-02-23T05:26:11.689Z,0.00
2023-02-23T05:27:11.712Z,0.00
2023-02-23T05:28:11.748Z,0.00
2023-02-23T05:29:11.723Z,0.00
2023-02-23T05:30:11.766Z,0.00
2023-02-23T05:31:11.838Z,0.00
2023-02-23T05:32:11.898Z,0.00
2023-02-23T05:33:11.734Z,0.00
2023-02-23T05:34:11.739Z,0.00
2023-02-23T05:35:11.757Z,0.00
2023-02-23T05:36:11.750Z,0.00
2023-02-23T05:37:11.770Z,0.00
2023-02-23T05:38:11.782Z,0.00
2023-02-23T05:39:11.798Z,0.00
2023-02-23T05:40:11.826Z,0.00
2023-02-23T05:41:11.854Z,0.00
2023-02-23T05:42:11.833Z,0.00
2023-02-23T05:43:11.859Z,0.00
2023-02-23T05:44:11.880Z,0.00
2023-02-23T05:45:11.887Z,0.00
2023-02-23T05:46:12.014Z,0.00
2023-02-23T05:47:11.921Z,0.00
2023-02-23T05:48:11.943Z,0.00
2023-02-23T05:49:12.780Z,0.00
2023-02-23T05:50:11.980Z,0.00
2023-02-23T05:51:12.018Z,0.00
2023-02-23T05:52:11.993Z,0.00
2023-02-23T05:53:12.012Z,0.00
2023-02-23T05:54:12.047Z,0.00
2023-02-23T05:55:12.074Z,0.00
2023-02-23T05:56:12.103Z,0.00
2023-02-23T05:57:12.131Z,0.00
2023-02-23T05:58:12.157Z,0.00
2023-02-23T05:59:12.181Z,0.00
2023-02-23T06:00:12.196Z,0.00
2023-02-23T06:02:38.246Z,0.00
2023-02-23T06:03:38.203Z,0.00
2023-02-23T06:04:38.158Z,0.00
2023-02-23T06:05:38.149Z,0.00
2023-02-23T06:06:38.177Z,0.00
2023-02-23T06:07:38.208Z,0.00
2023-02-23T06:08:38.231Z,0.00
2023-02-23T06:09:38.249Z,0.00
2023-02-23T06:10:38.260Z,0.00
2023-02-23T06:11:38.284Z,0.00
2023-02-23T06:12:38.311Z,0.00
2023-02-23T06:13:38.329Z,0.00
2023-02-23T06:14:38.337Z,0.00
2023-02-23T06:15:38.419Z,0.00
2023-02-23T06:16:38.702Z,0.00
2023-02-23T06:17:38.418Z,0.00
2023-02-23T06:18:38.467Z,0.00
2023-02-23T06:19:38.432Z,0.00
2023-02-23T06:20:40.280Z,0.00
2023-02-23T06:21:38.474Z,0.00
2023-02-23T06:22:38.488Z,0.00
2023-02-23T06:23:38.493Z,0.00
2023-02-23T06:24:38.520Z,0.00
2023-02-23T06:25:38.531Z,0.00
2023-02-23T06:26:38.571Z,0.00
2023-02-23T06:27:38.590Z,0.00
2023-02-23T06:28:38.613Z,0.00
2023-02-23T06:29:38.648Z,0.00
2023-02-23T06:30:38.688Z,0.00
2023-02-23T06:31:38.796Z,0.00
2023-02-23T06:32:38.783Z,5.62
2023-02-23T06:33:38.722Z,5.62
2023-02-23T06:34:38.790Z,5.62
2023-02-23T06:35:38.761Z,5.62
2023-02-23T06:36:38.782Z,5.62
2023-02-23T06:37:38.836Z,5.62
2023-02-23T06:38:38.810Z,5.62
2023-02-23T06:39:38.800Z,5.62
2023-02-23T06:40:38.787Z,5.62
2023-02-23T06:41:38.812Z,5.62
2023-02-23T06:42:38.847Z,5.62
2023-02-23T06:43:38.833Z,5.62
2023-02-23T06:44:38.854Z,5.62
2023-02-23T06:45:38.887Z,5.62
2023-02-23T06:46:38.944Z,5.62
2023-02-23T06:47:38.911Z,11.25
2023-02-23T06:48:38.897Z,11.25
2023-02-23T06:49:38.936Z,11.25
2023-02-23T06:50:38.953Z,11.25
2023-02-23T06:51:38.925Z,11.25
2023-02-23T06:52:38.959Z,11.25
2023-02-23T06:53:38.946Z,11.25
2023-02-23T06:54:38.974Z,11.25
2023-02-23T06:55:39.009Z,11.25
2023-02-23T06:56:39.018Z,11.25
2023-02-23T06:57:39.002Z,11.25
2023-02-23T06:58:38.998Z,11.25
2023-02-23T06:59:39.020Z,11.25
2023-02-23T07:00:39.002Z,11.25
2023-02-23T07:01:39.062Z,11.25
2023-02-23T07:02:39.061Z,11.25
2023-02-23T07:03:39.139Z,11.25
2023-02-23T07:04:39.049Z,11.25
2023-02-23T07:05:39.083Z,11.25
2023-02-23T07:06:39.200Z,11.25
2023-02-23T07:07:39.147Z,11.25
2023-02-23T07:08:39.130Z,11.25
2023-02-23T07:09:39.163Z,11.25
2023-02-23T07:10:39.187Z,11.25
2023-02-23T07:11:39.209Z,11.25
2023-02-23T07:12:39.206Z,11.25
2023-02-23T07:13:39.232Z,11.25
2023-02-23T07:14:39.257Z,11.25
2023-02-23T07:15:39.286Z,11.25
2023-02-23T07:16:39.417Z,11.25
2023-02-23T07:17:39.326Z,16.88
2023-02-23T07:18:39.326Z,16.88
2023-02-23T07:19:39.307Z,16.88
2023-02-23T07:20:39.320Z,16.88
2023-02-23T07:21:39.357Z,16.88
2023-02-23T07:22:40.072Z,16.88
2023-02-23T07:23:39.394Z,22.50
2023-02-23T07:24:39.385Z,22.50
2023-02-23T07:25:39.371Z,22.50
2023-02-23T07:26:39.396Z,22.50
2023-02-23T07:27:39.403Z,22.50
2023-02-23T07:28:39.392Z,22.50
2023-02-23T07:29:39.385Z,22.50
2023-02-23T07:30:39.422Z,22.50
2023-02-23T07:31:39.453Z,22.50
2023-02-23T07:32:39.459Z,22.50
2023-02-23T07:33:39.376Z,22.50
2023-02-23T07:34:39.360Z,22.50
2023-02-23T07:35:39.382Z,22.50
2023-02-23T07:36:39.411Z,22.50
2023-02-23T07:37:39.409Z,28.12
2023-02-23T07:38:39.459Z,28.12
2023-02-23T07:39:39.447Z,28.12
2023-02-23T07:40:39.447Z,28.12
2023-02-23T07:41:39.476Z,28.12
2023-02-23T07:42:39.516Z,28.12
2023-02-23T07:43:39.498Z,33.75
2023-02-23T07:44:39.530Z,33.75
2023-02-23T07:45:39.558Z,33.75
2023-02-23T07:46:39.590Z,33.75
2023-02-23T07:47:39.645Z,39.38
2023-02-23T07:48:39.656Z,39.38
2023-02-23T07:49:39.673Z,39.38
2023-02-23T07:50:39.705Z,39.38
2023-02-23T07:51:39.741Z,39.38
2023-02-23T07:52:39.742Z,39.38
2023-02-23T07:53:39.770Z,39.38
2023-02-23T07:54:39.786Z,39.38
2023-02-23T07:55:39.762Z,39.38
2023-02-23T07:56:39.789Z,39.38
2023-02-23T07:57:39.798Z,45.00
2023-02-23T07:58:39.784Z,45.00
2023-02-23T07:59:39.810Z,45.00
2023-02-23T08:00:39.792Z,45.00
2023-02-23T08:01:39.817Z,45.00
2023-02-23T08:02:39.883Z,45.00
2023-02-23T08:03:39.865Z,45.00
2023-02-23T08:04:39.879Z,50.62
2023-02-23T08:05:39.854Z,56.25
2023-02-23T08:06:39.888Z,56.25
2023-02-23T08:07:39.876Z,61.88
2023-02-23T08:08:39.864Z,61.88
2023-02-23T08:09:39.859Z,61.88
2023-02-23T08:10:39.907Z,61.88
2023-02-23T08:11:39.877Z,56.25
2023-02-23T08:12:39.981Z,56.25
2023-02-23T08:13:39.926Z,56.25
2023-02-23T08:14:39.915Z,56.25
2023-02-23T08:15:39.978Z,56.25
2023-02-23T08:16:40.025Z,50.62
2023-02-23T08:17:39.991Z,50.62
2023-02-23T08:18:40.140Z,45.00
2023-02-23T08:19:40.008Z,45.00
2023-02-23T08:20:40.068Z,39.38
2023-02-23T08:21:40.038Z,33.75
2023-02-23T08:22:49.312Z,33.75
2023-02-23T08:23:40.081Z,33.75
2023-02-23T08:24:40.067Z,33.75
2023-02-23T08:25:40.119Z,33.75
2023-02-23T08:26:40.116Z,33.75
2023-02-23T08:27:40.096Z,33.75
2023-02-23T08:28:40.122Z,39.38
2023-02-23T08:29:40.142Z,39.38
2023-02-23T08:30:40.240Z,39.38
2023-02-23T08:31:40.459Z,45.00
2023-02-23T08:32:40.265Z,45.00
2023-02-23T08:33:40.195Z,50.62
2023-02-23T08:34:40.231Z,50.62
2023-02-23T08:35:40.331Z,50.62
2023-02-23T08:36:40.273Z,45.00
2023-02-23T08:37:40.309Z,45.00
2023-02-23T08:38:40.293Z,39.38
2023-02-23T08:39:41.456Z,39.38
2023-02-23T08:40:40.292Z,33.75
2023-02-23T08:41:40.319Z,28.12
2023-02-23T08:42:40.401Z,28.12
2023-02-23T08:43:40.331Z,28.12
2023-02-23T08:44:40.423Z,22.50
2023-02-23T08:45:40.407Z,28.12
2023-02-23T08:46:40.391Z,28.12
2023-02-23T08:47:40.432Z,33.75
2023-02-23T08:48:40.674Z,39.38
2023-02-23T08:49:40.402Z,45.00
2023-02-23T08:50:40.426Z,50.62
2023-02-23T08:51:40.452Z,56.25
2023-02-23T08:52:40.488Z,61.88
2023-02-23T08:53:40.518Z,67.50
2023-02-23T08:54:40.504Z,67.50
2023-02-23T08:55:40.479Z,67.50
2023-02-23T08:56:40.498Z,61.88
2023-02-23T08:57:40.525Z,61.88
2023-02-23T08:58:40.556Z,61.88
2023-02-23T08:59:40.527Z,61.88
2023-02-23T09:00:40.591Z,61.88
2023-02-23T09:01:40.625Z,67.50
2023-02-23T09:02:40.593Z,67.50
2023-02-23T09:03:40.816Z,67.50
2023-02-23T09:04:40.615Z,73.12
2023-02-23T09:05:40.799Z,67.50
2023-02-23T09:06:40.653Z,67.50
2023-02-23T09:07:40.662Z,67.50
2023-02-23T09:08:40.658Z,67.50
2023-02-23T09:09:40.633Z,67.50
2023-02-23T09:10:40.626Z,67.50
2023-02-23T09:11:40.653Z,61.88
2023-02-23T09:12:40.678Z,56.25
2023-02-23T09:13:40.724Z,56.25
2023-02-23T09:14:40.748Z,56.25
2023-02-23T09:15:40.806Z,50.62
2023-02-23T09:16:40.787Z,45.00
2023-02-23T09:17:40.764Z,45.00
2023-02-23T09:18:40.806Z,45.00
2023-02-23T09:19:40.776Z,45.00
2023-02-23T09:20:40.782Z,45.00
2023-02-23T09:21:40.778Z,39.38
2023-02-23T09:22:40.813Z,39.38
2023-02-23T09:23:40.812Z,33.75
2023-02-23T09:24:40.791Z,33.75
2023-02-23T09:25:40.827Z,33.75
2023-02-23T09:26:40.844Z,28.12
2023-02-23T09:27:40.834Z,28.12
2023-02-23T09:28:41.112Z,28.12
2023-02-23T09:29:40.861Z,28.12
2023-02-23T09:30:40.911Z,28.12
2023-02-23T09:31:41.025Z,22.50
2023-02-23T09:32:40.927Z,22.50
2023-02-23T09:33:40.889Z,22.50
2023-02-23T09:34:40.878Z,22.50
2023-02-23T09:35:40.901Z,28.12
2023-02-23T09:36:40.886Z,39.38
2023-02-23T09:37:40.899Z,45.00
2023-02-23T09:38:40.901Z,45.00
2023-02-23T09:39:40.885Z,50.62
2023-02-23T09:40:40.908Z,50.62
2023-02-23T09:41:40.946Z,56.25
2023-02-23T09:42:40.968Z,56.25
2023-02-23T09:43:41.006Z,61.88
2023-02-23T09:44:41.027Z,61.88
2023-02-23T09:45:41.166Z,61.88
2023-02-23T09:46:41.093Z,56.25
2023-02-23T09:47:41.076Z,56.25
2023-02-23T09:48:41.076Z,50.62
2023-02-23T09:49:41.105Z,45.00
2023-02-23T09:50:41.121Z,50.62
2023-02-23T09:51:41.156Z,50.62
2023-02-23T09:52:41.778Z,50.62
2023-02-23T09:53:41.189Z,50.62
2023-02-23T09:54:41.213Z,56.25
2023-02-23T09:55:41.236Z,56.25
2023-02-23T09:56:41.267Z,50.62
2023-02-23T09:57:41.305Z,50.62
2023-02-23T09:58:41.364Z,50.62
2023-02-23T09:59:41.340Z,50.62
2023-02-23T10:00:41.368Z,56.25
2023-02-23T10:01:41.477Z,56.25
2023-02-23T10:02:41.435Z,50.62
2023-02-23T10:03:41.426Z,56.25
2023-02-23T10:04:41.462Z,61.88
2023-02-23T10:05:41.433Z,56.25
2023-02-23T10:06:41.458Z,56.25
2023-02-23T10:07:41.497Z,45.00
2023-02-23T10:08:41.545Z,45.00
2023-02-23T10:09:41.552Z,45.00
2023-02-23T10:10:41.544Z,39.38
2023-02-23T10:11:42.040Z,33.75
2023-02-23T10:12:41.531Z,33.75
2023-02-23T10:13:41.566Z,33.75
2023-02-23T10:14:41.587Z,33.75
2023-02-23T10:15:41.627Z,33.75
2023-02-23T10:16:41.616Z,39.38
2023-02-23T10:17:41.648Z,33.75
2023-02-23T10:18:46.784Z,39.38
2023-02-23T10:19:41.709Z,39.38
2023-02-23T10:20:41.733Z,39.38
2023-02-23T10:21:41.757Z,33.75
2023-02-23T10:22:41.903Z,28.12
2023-02-23T10:23:41.806Z,33.75
2023-02-23T10:24:41.783Z,39.38
2023-02-23T10:25:41.781Z,45.00
2023-02-23T10:26:41.814Z,56.25
2023-02-23T10:27:41.844Z,61.88
2023-02-23T10:28:41.886Z,73.12
2023-02-23T10:29:41.918Z,78.75
2023-02-23T10:30:41.909Z,84.38
2023-02-23T10:31:42.021Z,90.00
2023-02-23T10:32:41.961Z,95.62
2023-02-23T10:33:41.926Z,90.00
2023-02-23T10:34:41.945Z,84.38
2023-02-23T10:35:41.925Z,84.38
2023-02-23T10:36:41.914Z,90.00
2023-02-23T10:37:41.909Z,84.38
2023-02-23T10:38:41.954Z,84.38
2023-02-23T10:39:41.996Z,84.38
2023-02-23T10:40:41.932Z,78.75
2023-02-23T10:41:41.980Z,78.75
2023-02-23T10:42:41.960Z,78.75
2023-02-23T10:43:41.965Z,78.75
2023-02-23T10:44:41.965Z,78.75
2023-02-23T10:45:41.948Z,78.75
2023-02-23T10:46:41.990Z,84.38
2023-02-23T10:47:41.967Z,84.38
2023-02-23T10:48:42.076Z,90.00
2023-02-23T10:49:41.991Z,90.00
2023-02-23T10:50:42.066Z,95.62
2023-02-23T10:51:42.042Z,95.62
2023-02-23T10:52:42.224Z,95.62
2023-02-23T10:53:42.068Z,90.00
2023-02-23T10:54:42.050Z,90.00
2023-02-23T10:55:42.085Z,95.62
2023-02-23T10:56:42.117Z,106.88
2023-02-23T10:57:42.153Z,118.12
2023-02-23T10:58:42.209Z,123.75
2023-02-23T10:59:42.229Z,123.75
2023-02-23T11:00:42.222Z,129.38
2023-02-23T11:01:55.403Z,135.00
2023-02-23T11:02:42.252Z,146.25
2023-02-23T11:03:43.137Z,157.50
2023-02-23T11:04:42.310Z,157.50
2023-02-23T11:05:42.252Z,140.62
2023-02-23T11:06:42.294Z,129.38
2023-02-23T11:07:42.237Z,135.00
2023-02-23T11:08:42.260Z,135.00
2023-02-23T11:09:47.023Z,123.75
2023-02-23T11:10:42.269Z,112.50
2023-02-23T11:11:42.251Z,106.88
2023-02-23T11:12:42.281Z,101.25
2023-02-23T11:13:42.327Z,106.88
2023-02-23T11:14:42.694Z,112.50
2023-02-23T11:15:50.329Z,106.88
2023-02-23T11:16:42.370Z,95.62
2023-02-23T11:17:42.346Z,78.75
2023-02-23T11:18:42.376Z,67.50
2023-02-23T11:19:42.372Z,61.88
2023-02-23T11:20:42.402Z,56.25
2023-02-23T11:21:42.442Z,50.62
2023-02-23T11:22:42.487Z,45.00
2023-02-23T11:23:42.475Z,39.38
2023-02-23T11:24:42.455Z,39.38
2023-02-23T11:25:42.474Z,39.38
2023-02-23T11:26:42.575Z,39.38
2023-02-23T11:27:42.525Z,33.75
2023-02-23T11:28:42.525Z,33.75
2023-02-23T11:29:42.502Z,33.75
2023-02-23T11:30:42.574Z,33.75
2023-02-23T11:31:42.651Z,33.75
2023-02-23T11:32:42.665Z,39.38
2023-02-23T11:33:42.537Z,45.00
2023-02-23T11:34:42.580Z,56.25
2023-02-23T11:35:42.559Z,67.50
2023-02-23T11:36:42.546Z,73.12
2023-02-23T11:37:42.572Z,73.12
2023-02-23T11:38:42.673Z,78.75
2023-02-23T11:39:42.615Z,84.38
2023-02-23T11:40:42.639Z,90.00
2023-02-23T11:41:42.694Z,95.62
2023-02-23T11:42:42.670Z,101.25
2023-02-23T11:43:42.697Z,101.25
2023-02-23T11:44:42.727Z,101.25
2023-02-23T11:45:43.824Z,95.62
2023-02-23T11:46:42.818Z,101.25
2023-02-23T11:47:42.806Z,106.88
2023-02-23T11:48:42.777Z,118.12
2023-02-23T11:49:42.771Z,118.12
2023-02-23T11:50:42.761Z,123.75
2023-02-23T11:51:42.750Z,118.12
2023-02-23T11:52:42.773Z,112.50
2023-02-23T11:53:42.809Z,112.50
2023-02-23T11:54:42.859Z,106.88
2023-02-23T11:55:42.836Z,101.25
2023-02-23T11:56:42.871Z,101.25
2023-02-23T11:57:42.889Z,106.88
2023-02-23T11:58:42.914Z,118.12
2023-02-23T11:59:42.956Z,129.38
2023-02-23T12:00:42.978Z,140.62
2023-02-23T12:01:43.004Z,146.25
2023-02-23T12:02:43.080Z,157.50
2023-02-23T12:03:43.031Z,168.75
2023-02-23T12:04:43.078Z,174.38
2023-02-23T12:05:43.067Z,168.75
2023-02-23T12:06:43.164Z,157.50
2023-02-23T12:07:43.134Z,146.25
2023-02-23T12:08:43.110Z,135.00
2023-02-23T12:09:43.123Z,123.75
2023-02-23T12:10:43.194Z,118.12
2023-02-23T12:11:43.113Z,118.12
2023-02-23T12:12:43.137Z,118.12
2023-02-23T12:13:43.163Z,112.50
2023-02-23T12:14:43.214Z,112.50
2023-02-23T12:15:43.206Z,112.50
2023-02-23T12:16:43.301Z,106.88
2023-02-23T12:17:43.256Z,106.88
2023-02-23T12:18:43.290Z,106.88
2023-02-23T12:19:43.273Z,106.88
2023-02-23T12:20:43.260Z,106.88
2023-02-23T12:21:43.294Z,112.50
2023-02-23T12:22:43.318Z,112.50
2023-02-23T12:23:43.348Z,106.88
2023-02-23T12:24:43.409Z,106.88
2023-02-23T12:25:43.390Z,106.88
2023-02-23T12:26:43.448Z,101.25
2023-02-23T12:27:43.426Z,95.62
2023-02-23T12:28:43.464Z,90.00
2023-02-23T12:29:43.458Z,90.00
2023-02-23T12:30:43.467Z,84.38
2023-02-23T12:31:43.532Z,84.38
2023-02-23T12:32:43.439Z,95.62
2023-02-23T12:33:43.463Z,95.62
2023-02-23T12:34:43.524Z,95.62
2023-02-23T12:35:43.510Z,90.00
2023-02-23T12:36:43.499Z,73.12
2023-02-23T12:37:43.482Z,67.50
2023-02-23T12:38:43.514Z,56.25
2023-02-23T12:39:43.558Z,50.62
2023-02-23T12:40:43.551Z,45.00
2023-02-23T12:41:43.576Z,39.38
2023-02-23T12:42:43.630Z,39.38
2023-02-23T12:43:43.606Z,33.75
2023-02-23T12:44:43.643Z,28.12
2023-02-23T12:45:43.705Z,28.12
2023-02-23T12:46:43.649Z,22.50
2023-02-23T12:47:43.635Z,22.50
2023-02-23T12:48:43.661Z,22.50
2023-02-23T12:49:43.718Z,22.50
2023-02-23T12:50:43.698Z,22.50
2023-02-23T12:51:43.723Z,16.88
2023-02-23T12:52:43.723Z,16.88
2023-02-23T12:53:43.704Z,11.25
2023-02-23T12:54:43.745Z,11.25
2023-02-23T12:55:43.733Z,11.25
2023-02-23T12:56:43.730Z,11.25
2023-02-23T12:57:43.718Z,11.25
2023-02-23T12:58:43.828Z,11.25
2023-02-23T12:59:43.713Z,11.25
2023-02-23T13:00:43.735Z,11.25
2023-02-23T13:01:43.819Z,11.25
2023-02-23T13:02:43.798Z,16.88
2023-02-23T13:03:43.777Z,22.50
2023-02-23T13:04:43.759Z,22.50